Main page
METAR-TAF:

METAR-TAF

Airports :

Kullu–Manali Airport

Kullu / Manali, India

latitude: 31-52-36N, longitude: 77-09-16E, elevation: 1089 m

METAR: missing

Time: 03:51 (22:21 UTC)

Forecast

The report was made 17 hours and 21 minutes ago, at 05:00 UTC
Forecast valid from 04 at 06 UTC to 04 at 15 UTC
Wind 2 kt from variable directions
Visibility: 5000 m
Few clouds at a height of 800 ft
Scattered clouds at a height of 2500 ft
Broken clouds at a height of 8000 ft
mist, light rain
Becoming
from 04 at 11 UTC to 04 at 13 UTC
Wind kt from the North
Visibility: 3000 m
Overcast at a height of 8000 ft
light rain
Becoming
from 04 at 12 UTC to 04 at 15 UTC
Few clouds at a height of 3000 ft, Cumulonimbus.

TAF: VIBR 040500Z 0406/0415 VRB02KT 5000 BR -RA FEW008 SCT025 BKN080 BECMG 0411/0413 00000KT 3000 -RA OVC080 BECMG 0412/0415 FEW030CB

Weather observations and forecasts of more than 4000 airports (METAR and TAF reports).

The available stations are represented by yellow and red dots on the map.

Hover mouse over dot to see the name of the station.

Then click to see weather observations and forecasts.

To change the map : click on the green buttons with a black cross to zoom in, on the green button with a dash to zoom out, or on the green arrows for adjacent maps.


METAR-TAF: